Time;durP1;ratioP1;P1;durP2;ratioP2;P2;SDS_P1;SDS_P2;PMS_P1;PMS_P2;Temp;Humidity;BMP_temperature;BMP_pressure;BME280_temperature;BME280_humidity;BME280_pressure;Samples;Min_cycle;Max_cycle;Signal;HPM_P1;HPM_P2
2023/03/20 00:01:40;;;;;;;;;38.75;34.50;;;;;11.66;100.00;101942.63;4977150;28;45443;-69
2023/03/20 00:04:05;;;;;;;;;32.50;31.25;;;;;11.55;100.00;101933.59;4973797;28;45253;-69
2023/03/20 00:06:31;;;;;;;;;43.00;35.25;;;;;11.66;100.00;101948.06;4972418;28;46835;-69
2023/03/20 00:08:56;;;;;;;;;40.25;31.50;;;;;11.57;100.00;101948.81;4968840;28;45257;-69
2023/03/20 00:11:31;;;;;;;;;38.00;32.00;;;;;11.48;100.00;101940.53;4971038;28;46791;-69
2023/03/20 00:14:03;;;;;;;;;35.25;32.75;;;;;11.51;100.00;101953.88;4967833;28;45225;-69
2023/03/20 00:16:31;;;;;;;;;39.00;33.00;;;;;11.49;100.00;101950.41;4970994;28;45466;-69
2023/03/20 00:18:57;;;;;;;;;40.00;31.50;;;;;11.47;100.00;101955.97;4967229;28;45504;-69
2023/03/20 00:21:23;;;;;;;;;33.50;30.50;;;;;11.48;100.00;101951.41;4970712;28;46355;-69
2023/03/20 00:23:48;;;;;;;;;37.75;36.00;;;;;11.39;100.00;101963.94;4966363;28;45503;-69
2023/03/20 00:26:19;;;;;;;;;35.75;34.75;;;;;11.36;100.00;101956.00;4970902;28;45405;-69
2023/03/20 00:28:47;;;;;;;;;34.75;30.50;;;;;11.45;100.00;101952.53;4966352;28;45243;-69
2023/03/20 00:31:34;;;;;;;;;32.75;31.50;;;;;11.44;100.00;101958.09;4964795;28;46264;-69
2023/03/20 00:34:02;;;;;;;;;39.75;30.00;;;;;11.43;100.00;101957.22;4975506;28;45423;-69
2023/03/20 00:36:28;;;;;;;;;34.00;32.00;;;;;11.42;100.00;101944.63;4964018;28;45396;-69
2023/03/20 00:38:56;;;;;;;;;46.50;38.50;;;;;11.37;100.00;101952.28;4962201;28;45429;-69
2023/03/20 00:41:26;;;;;;;;;38.50;34.75;;;;;11.31;100.00;101956.38;4964536;28;45418;-69
2023/03/20 00:43:56;;;;;;;;;35.75;34.00;;;;;11.30;100.00;101956.50;4964853;28;45407;-69
2023/03/20 00:46:22;;;;;;;;;39.00;35.50;;;;;11.32;100.00;101952.66;4964232;28;45352;-70
2023/03/20 00:48:48;;;;;;;;;40.75;35.25;;;;;11.36;100.00;101955.13;4965177;28;45266;-70
2023/03/20 00:51:14;;;;;;;;;37.50;33.50;;;;;11.34;100.00;101952.53;4964571;28;45521;-69
2023/03/20 00:53:40;;;;;;;;;33.25;32.25;;;;;11.32;100.00;101949.09;4963308;28;45430;-70
2023/03/20 00:56:06;;;;;;;;;37.50;34.00;;;;;11.26;100.00;101949.56;4965180;28;45450;-69
2023/03/20 00:58:31;;;;;;;;;45.50;35.75;;;;;11.31;100.00;101953.66;4976502;28;45442;-70
2023/03/20 01:00:57;;;;;;;;;41.25;33.75;;;;;11.30;100.00;101945.63;4964975;28;46178;-70
2023/03/20 01:03:25;;;;;;;;;36.25;34.50;;;;;11.32;100.00;101959.97;4962535;28;45473;-69
2023/03/20 01:05:51;;;;;;;;;40.75;35.25;;;;;11.29;100.00;101949.31;4963342;28;45384;-69
2023/03/20 01:08:23;;;;;;;;;43.25;38.25;;;;;11.26;100.00;101963.16;4963297;28;45333;-69
2023/03/20 01:10:52;;;;;;;;;40.25;36.50;;;;;11.21;100.00;101954.50;4963497;28;45352;-69
2023/03/20 01:13:23;;;;;;;;;37.75;34.00;;;;;11.21;100.00;101958.09;4963063;28;45290;-69
2023/03/20 01:15:51;;;;;;;;;42.50;37.00;;;;;11.14;100.00;101945.97;4963737;28;45319;-69
2023/03/20 01:18:18;;;;;;;;;48.25;39.25;;;;;11.13;100.00;101959.69;4961457;28;45299;-69
2023/03/20 01:20:44;;;;;;;;;46.50;39.00;;;;;11.11;100.00;101954.38;4963407;28;46276;-71
2023/03/20 01:23:10;;;;;;;;;44.25;38.25;;;;;11.07;100.00;101961.06;4956988;28;45375;-71
2023/03/20 01:25:36;;;;;;;;;41.00;37.50;;;;;11.02;100.00;101962.41;4961958;28;45452;-71
2023/03/20 01:28:10;;;;;;;;;43.75;36.50;;;;;11.02;100.00;101965.13;4963598;28;45519;-70
2023/03/20 01:30:36;;;;;;;;;46.00;40.25;;;;;10.95;100.00;101955.75;4964223;28;46014;-68
2023/03/20 01:33:10;;;;;;;;;47.50;37.50;;;;;10.93;100.00;101954.00;4963287;28;45385;-71
2023/03/20 01:35:36;;;;;;;;;47.00;37.00;;;;;10.94;100.00;101957.59;4978008;28;45558;-71
2023/03/20 01:38:02;;;;;;;;;38.25;36.75;;;;;10.92;100.00;101963.16;4966140;28;45452;-71
2023/03/20 01:40:46;;;;;;;;;37.50;36.75;;;;;10.93;100.00;101962.16;4969130;28;45628;-71
2023/03/20 01:43:15;;;;;;;;;38.50;36.25;;;;;10.96;100.00;101965.63;4971567;28;46130;-68
2023/03/20 01:45:51;;;;;;;;;42.75;33.50;;;;;10.92;100.00;101957.72;4966331;28;45283;-68
2023/03/20 01:48:18;;;;;;;;;40.25;34.25;;;;;10.86;100.00;101952.75;4966724;28;45373;-68
2023/03/20 01:50:43;;;;;;;;;38.50;32.50;;;;;10.87;100.00;101950.91;4964487;28;46969;-68
2023/03/20 01:53:15;;;;;;;;;38.00;35.75;;;;;10.86;100.00;101935.56;4966566;28;45356;-71
2023/03/20 01:55:43;;;;;;;;;35.75;33.50;;;;;10.86;100.00;101943.72;4967793;28;45343;-71
2023/03/20 01:58:18;;;;;;;;;44.25;35.25;;;;;10.81;100.00;101935.09;4967917;28;45313;-68
2023/03/20 02:00:47;;;;;;;;;39.25;34.50;;;;;10.78;100.00;101949.78;4966138;28;48276;-69
2023/03/20 02:03:12;;;;;;;;;44.00;33.50;;;;;10.65;100.00;101932.69;4967100;28;45373;-69
2023/03/20 02:05:38;;;;;;;;;37.75;35.75;;;;;10.74;100.00;101942.81;4967059;28;45454;-69
2023/03/20 02:08:18;;;;;;;;;18.75;16.75;;;;;10.77;100.00;101942.59;4980727;28;45261;-69
2023/03/20 02:10:46;;;;;;;;;45.50;36.25;;;;;10.72;100.00;101944.81;4966889;28;46110;-69
2023/03/20 02:13:13;;;;;;;;;38.25;33.25;;;;;10.74;100.00;101953.69;4967268;28;45375;-69
2023/03/20 02:16:02;;;;;;;;;38.25;29.75;;;;;10.73;100.00;101935.69;4967107;28;45349;-69
2023/03/20 02:18:29;;;;;;;;;33.00;31.25;;;;;10.72;100.00;101933.94;4995387;28;45522;-69
2023/03/20 02:21:23;;;;;;;;;34.50;30.25;;;;;10.72;100.00;101930.38;4998679;28;46848;-69
2023/03/20 02:24:13;;;;;;;;;34.50;32.50;;;;;10.68;100.00;101940.59;4966292;28;45440;-69
2023/03/20 02:26:51;;;;;;;;;39.00;32.25;;;;;10.68;100.00;101942.44;4957040;28;45380;-69
2023/03/20 02:29:47;;;;;;;;;29.00;27.00;;;;;10.65;100.00;101935.41;4999418;28;45339;-69
2023/03/20 02:32:46;;;;;;;;;32.50;31.75;;;;;10.63;100.00;101941.94;4966292;28;45532;-69
2023/03/20 02:35:24;;;;;;;;;35.50;30.00;;;;;10.56;100.00;101943.41;4968031;28;45316;-69
2023/03/20 02:38:11;;;;;;;;;32.25;30.25;;;;;10.58;100.00;101939.59;4966434;28;45499;-69
2023/03/20 02:41:04;;;;;;;;;33.25;28.75;;;;;10.59;100.00;101935.91;4968455;28;45245;-69
2023/03/20 02:43:35;;;;;;;;;30.75;25.00;;;;;10.60;100.00;101929.44;4966933;28;46234;-69
2023/03/20 02:46:25;;;;;;;;;34.25;32.25;;;;;10.59;100.00;101938.63;4998569;28;45356;-69
2023/03/20 02:49:05;;;;;;;;;42.75;34.00;;;;;10.52;100.00;101931.91;4998563;28;45435;-69
2023/03/20 02:51:37;;;;;;;;;28.50;28.50;;;;;10.53;100.00;101931.78;4999227;28;45334;-69
2023/03/20 02:54:26;;;;;;;;;36.25;30.25;;;;;10.56;100.00;101919.81;4970552;28;46576;-69
2023/03/20 02:57:03;;;;;;;;;38.75;29.75;;;;;10.63;100.00;101918.34;4961319;28;45418;-69
2023/03/20 02:59:37;;;;;;;;;31.00;30.00;;;;;10.62;100.00;101924.78;4959992;28;45532;-71
2023/03/20 03:02:12;;;;;;;;;37.75;30.50;;;;;10.58;100.00;101917.84;4966182;28;45516;-70
2023/03/20 03:04:48;;;;;;;;;31.75;28.75;;;;;10.56;100.00;101918.97;4966212;28;46102;-70
2023/03/20 03:07:18;;;;;;;;;32.00;30.25;;;;;10.62;100.00;101921.19;4965309;28;46074;-70
2023/03/20 03:10:09;;;;;;;;;32.00;32.00;;;;;10.60;100.00;101909.56;4968599;28;45440;-70
2023/03/20 03:12:40;;;;;;;;;36.75;33.25;;;;;10.51;100.00;101900.31;4960929;28;45493;-70
2023/03/20 03:15:22;;;;;;;;;38.00;30.25;;;;;10.59;100.00;101913.28;4972849;28;45483;-70
2023/03/20 03:17:48;;;;;;;;;41.00;31.50;;;;;10.56;100.00;101911.66;4962077;28;45417;-70
2023/03/20 03:20:21;;;;;;;;;31.75;31.75;;;;;10.64;100.00;101922.81;4958126;28;45355;-70
2023/03/20 03:22:48;;;;;;;;;32.50;30.75;;;;;10.60;100.00;101917.72;4966809;28;45545;-70
2023/03/20 03:25:13;;;;;;;;;37.00;29.00;;;;;10.61;100.00;101924.88;4977047;28;45466;-70
2023/03/20 03:27:42;;;;;;;;;35.50;32.25;;;;;10.58;100.00;101909.72;4968453;28;45380;-70
2023/03/20 03:30:11;;;;;;;;;34.75;30.50;;;;;10.55;100.00;101918.09;4960801;28;45317;-70
2023/03/20 03:32:45;;;;;;;;;35.50;31.75;;;;;10.50;100.00;101926.63;4967544;28;45371;-70
2023/03/20 03:35:17;;;;;;;;;37.50;34.75;;;;;10.47;100.00;101923.25;4962704;28;46055;-70
2023/03/20 03:38:00;;;;;;;;;33.75;30.25;;;;;10.46;100.00;101926.94;4964970;28;45423;-70
2023/03/20 03:40:43;;;;;;;;;32.25;29.00;;;;;10.47;100.00;101923.25;4970501;28;45442;-70
2023/03/20 03:43:23;;;;;;;;;37.25;31.75;;;;;10.55;100.00;101912.66;4959300;28;45532;-70
2023/03/20 03:46:00;;;;;;;;;34.50;31.75;;;;;10.50;100.00;101902.16;4998851;28;47162;-69
2023/03/20 03:48:34;;;;;;;;;38.50;33.25;;;;;10.56;100.00;101905.38;5000592;28;45760;-70
2023/03/20 03:51:06;;;;;;;;;33.00;30.25;;;;;10.51;100.00;101903.03;4968624;28;45445;-70
2023/03/20 03:53:37;;;;;;;;;32.00;29.75;;;;;10.53;100.00;101901.91;4970060;28;45487;-75
2023/03/20 03:56:11;;;;;;;;;32.50;30.75;;;;;10.54;100.00;101903.63;4980464;28;45803;-74
2023/03/20 03:58:47;;;;;;;;;24.25;23.00;;;;;10.47;100.00;101901.50;4968174;28;45466;-74
2023/03/20 04:01:15;;;;;;;;;38.50;32.50;;;;;10.47;100.00;101905.09;4970242;28;45535;-74
2023/03/20 04:03:52;;;;;;;;;33.50;30.50;;;;;10.46;100.00;101897.06;4966097;28;45387;-74
2023/03/20 04:06:19;;;;;;;;;32.25;28.50;;;;;10.56;100.00;101910.81;5000171;28;48712;-74
2023/03/20 04:08:44;;;;;;;;;31.50;28.50;;;;;10.46;100.00;101886.19;4963588;28;45403;-74
2023/03/20 04:11:15;;;;;;;;;34.50;32.25;;;;;10.51;100.00;101906.59;4978923;28;45493;-75
2023/03/20 04:13:41;;;;;;;;;30.75;30.75;;;;;10.61;100.00;101914.88;4959118;28;45528;-75
2023/03/20 04:16:13;;;;;;;;;32.25;32.00;;;;;10.64;100.00;101909.22;4969232;28;45382;-75
2023/03/20 04:18:38;;;;;;;;;37.75;29.50;;;;;10.66;100.00;101918.13;4965818;28;45389;-74
2023/03/20 04:21:04;;;;;;;;;34.25;32.25;;;;;10.63;100.00;101918.34;4969924;28;45484;-74
2023/03/20 04:23:30;;;;;;;;;30.25;30.25;;;;;10.62;100.00;101924.78;4967170;28;45447;-74
2023/03/20 04:25:55;;;;;;;;;37.75;36.25;;;;;10.69;100.00;101930.59;4968970;28;45335;-74
2023/03/20 04:28:20;;;;;;;;;33.75;33.75;;;;;10.70;100.00;101914.16;4963820;28;45535;-75
2023/03/20 04:30:52;;;;;;;;;40.50;33.00;;;;;10.77;100.00;101923.56;4959567;28;51984;-75
2023/03/20 04:33:17;;;;;;;;;44.25;38.25;;;;;10.79;100.00;101935.19;4962708;28;45364;-75
2023/03/20 04:35:43;;;;;;;;;36.75;32.25;;;;;10.78;100.00;101935.31;4965805;28;54301;-75
2023/03/20 04:38:08;;;;;;;;;43.00;39.00;;;;;10.76;100.00;101921.84;4994786;28;45316;-75
2023/03/20 04:40:33;;;;;;;;;36.50;34.00;;;;;10.87;100.00;101943.63;4962454;28;45335;-75
2023/03/20 04:42:59;;;;;;;;;39.25;36.00;;;;;10.82;100.00;101932.22;4963494;28;45468;-75
2023/03/20 04:45:24;;;;;;;;;41.50;35.75;;;;;10.82;100.00;101934.94;4962057;28;47080;-75
2023/03/20 04:47:50;;;;;;;;;34.50;31.75;;;;;10.90;100.00;101929.75;4961556;28;45386;-75
2023/03/20 04:50:15;;;;;;;;;39.00;33.25;;;;;10.91;100.00;101920.63;4961643;28;45393;-75
2023/03/20 04:52:40;;;;;;;;;39.50;34.00;;;;;10.97;100.00;101932.84;4968801;28;45373;-74
2023/03/20 04:55:06;;;;;;;;;36.25;33.25;;;;;11.01;100.00;101926.19;4974116;28;46221;-73
2023/03/20 04:57:32;;;;;;;;;36.75;33.25;;;;;11.07;100.00;101916.69;4970689;28;45392;-74
2023/03/20 04:59:57;;;;;;;;;44.00;36.75;;;;;11.13;100.00;101924.34;4970119;28;45864;-72
2023/03/20 05:02:22;;;;;;;;;40.50;37.50;;;;;11.15;100.00;101919.66;4972263;28;45353;-72
2023/03/20 05:04:48;;;;;;;;;34.25;32.75;;;;;11.21;100.00;101911.00;4954795;28;46892;-72
2023/03/20 05:07:13;;;;;;;;;30.75;29.00;;;;;11.22;100.00;101915.44;5002202;28;45695;-73
2023/03/20 05:09:38;;;;;;;;;31.25;31.25;;;;;11.23;100.00;101900.84;4961157;28;45319;-73
2023/03/20 05:12:04;;;;;;;;;42.75;33.25;;;;;11.27;100.00;101905.03;4968374;28;45369;-73
2023/03/20 05:14:30;;;;;;;;;33.25;31.50;;;;;11.32;100.00;101916.44;4981544;28;45256;-73
2023/03/20 05:16:55;;;;;;;;;38.75;33.00;;;;;11.35;100.00;101912.59;4970064;28;45464;-72
2023/03/20 05:19:21;;;;;;;;;30.75;30.00;;;;;11.42;100.00;101922.84;4967466;28;45425;-74
2023/03/20 05:21:46;;;;;;;;;39.00;35.50;;;;;11.45;100.00;101917.16;4971129;28;45428;-73
2023/03/20 05:24:11;;;;;;;;;38.25;32.50;;;;;11.44;100.00;101915.44;4962006;28;54131;-73
2023/03/20 05:26:37;;;;;;;;;36.75;33.25;;;;;11.51;100.00;101915.78;4975117;28;45494;-73
2023/03/20 05:29:02;;;;;;;;;39.75;36.00;;;;;11.58;100.00;101917.88;4957262;28;45774;-74
2023/03/20 05:31:27;;;;;;;;;36.75;34.75;;;;;11.56;100.00;101911.69;4982422;28;45434;-72
2023/03/20 05:33:53;;;;;;;;;40.00;35.25;;;;;11.59;100.00;101908.72;4972267;28;47160;-76
2023/03/20 05:36:18;;;;;;;;;37.75;35.00;;;;;11.54;100.00;101907.38;4982835;28;45289;-74
2023/03/20 05:38:43;;;;;;;;;36.75;33.25;;;;;11.60;100.00;101915.91;4968822;28;45506;-75
2023/03/20 05:41:09;;;;;;;;;33.75;20.25;;;;;11.54;100.00;101893.78;4984870;28;45486;-74
2023/03/20 05:43:34;;;;;;;;;44.25;37.00;;;;;11.66;100.00;101909.94;4968500;28;47296;-74
2023/03/20 05:46:00;;;;;;;;;49.50;39.00;;;;;11.57;100.00;101905.25;4972990;28;45327;-74
2023/03/20 05:48:25;;;;;;;;;45.00;39.25;;;;;11.59;100.00;101913.31;4968222;28;45396;-73
2023/03/20 05:50:50;;;;;;;;;28.50;25.25;;;;;11.71;100.00;101917.72;5003602;28;45304;-73
2023/03/20 05:53:16;;;;;;;;;38.75;35.75;;;;;11.80;100.00;101916.13;4969907;28;46584;-73
2023/03/20 05:55:43;;;;;;;;;45.00;38.50;;;;;11.85;100.00;101919.31;4974068;28;45404;-74
2023/03/20 05:58:09;;;;;;;;;38.50;36.00;;;;;11.81;100.00;101910.56;4970440;28;45330;-74
2023/03/20 06:00:35;;;;;;;;;46.50;38.50;;;;;11.77;100.00;101916.38;4973705;28;45414;-74
2023/03/20 06:03:00;;;;;;;;;40.75;36.00;;;;;11.78;100.00;101912.66;4969722;28;45453;-72
2023/03/20 06:05:25;;;;;;;;;34.50;33.00;;;;;11.87;100.00;101922.78;4972532;28;45298;-73
2023/03/20 06:07:51;;;;;;;;;42.25;37.00;;;;;11.71;100.00;101923.16;5001024;28;45618;-73
2023/03/20 06:10:16;;;;;;;;;49.25;42.00;;;;;11.66;100.00;101929.00;4974800;28;45352;-72
2023/03/20 06:12:42;;;;;;;;;46.75;39.00;;;;;11.67;100.00;101928.00;4971360;28;46383;-72
2023/03/20 06:15:07;;;;;;;;;39.00;34.25;;;;;11.64;100.00;101932.84;4976295;28;45252;-73
2023/03/20 06:17:33;;;;;;;;;49.00;39.50;;;;;11.51;100.00;101932.97;4973642;28;45366;-72
2023/03/20 06:19:58;;;;;;;;;45.00;38.50;;;;;11.64;100.00;101938.28;4982907;28;45239;-73
2023/03/20 06:22:23;;;;;;;;;39.00;36.25;;;;;11.77;100.00;101949.91;4967245;28;45475;-73
2023/03/20 06:24:49;;;;;;;;;42.00;36.50;;;;;11.96;100.00;101943.81;4975374;28;48211;-72
2023/03/20 06:27:14;;;;;;;;;36.75;33.50;;;;;12.06;100.00;101944.75;4965647;28;45434;-72
2023/03/20 06:29:40;;;;;;;;;25.75;21.25;;;;;12.08;100.00;101931.88;4965015;28;45432;-72
2023/03/20 06:32:07;;;;;;;;;15.33;14.33;;;;;12.00;100.00;101934.38;4965241;28;48102;-73
2023/03/20 06:34:32;;;;;;;;;13.67;12.00;;;;;11.82;100.00;101933.22;4965528;28;45786;-73
2023/03/20 06:36:58;;;;;;;;;16.33;8.33;;;;;11.96;100.00;101927.47;4965697;28;45397;-73
2023/03/20 06:39:23;;;;;;;;;9.00;6.67;;;;;12.20;100.00;101914.47;4998652;28;45356;-71
2023/03/20 06:41:49;;;;;;;;;5.67;5.67;;;;;12.29;100.00;101915.56;4966250;28;45926;-71
2023/03/20 06:44:14;;;;;;;;;4.00;4.00;;;;;12.38;100.00;101912.06;4966967;28;45385;-73
2023/03/20 06:46:40;;;;;;;;;7.00;5.33;;;;;12.30;100.00;101899.09;4968505;28;45345;-74
2023/03/20 06:49:05;;;;;;;;;3.00;3.00;;;;;12.35;100.00;101905.00;4962347;28;45352;-73
2023/03/20 06:51:31;;;;;;;;;7.00;5.33;;;;;12.37;100.00;101924.81;4968323;28;45483;-71
2023/03/20 06:53:57;;;;;;;;;8.67;7.00;;;;;12.31;100.00;101917.19;4967301;28;45392;-72
2023/03/20 06:56:22;;;;;;;;;9.33;8.00;;;;;12.35;100.00;101918.63;4963079;28;45349;-72
2023/03/20 06:58:48;;;;;;;;;5.33;3.67;;;;;12.57;100.00;101927.69;4967649;28;45370;-72
2023/03/20 07:01:19;;;;;;;;;7.33;4.67;;;;;12.59;100.00;101917.50;4962847;28;46974;-72
2023/03/20 07:03:45;;;;;;;;;7.67;5.00;;;;;12.67;100.00;101918.59;4966711;28;45396;-72
2023/03/20 07:06:11;;;;;;;;;6.33;6.33;;;;;12.75;100.00;101917.91;4974202;28;45484;-73
2023/03/20 07:08:37;;;;;;;;;10.00;6.33;;;;;12.79;100.00;101933.00;4978227;28;45638;-72
2023/03/20 07:11:03;;;;;;;;;7.00;7.00;;;;;13.02;100.00;101934.56;4970333;28;45480;-71
2023/03/20 07:13:29;;;;;;;;;4.00;4.00;;;;;13.33;100.00;101930.03;4970457;28;45259;-73
2023/03/20 07:15:57;;;;;;;;;5.00;4.00;;;;;13.48;100.00;101930.50;4974193;28;45336;-72
2023/03/20 07:18:23;;;;;;;;;3.67;3.67;;;;;13.65;100.00;101932.59;4966557;28;45602;-71
2023/03/20 07:20:51;;;;;;;;;4.00;4.00;;;;;13.69;100.00;101920.38;4964419;28;48368;-73
2023/03/20 07:23:17;;;;;;;;;7.00;4.00;;;;;13.86;100.00;101922.44;4977487;28;45538;-72
2023/03/20 07:25:42;;;;;;;;;5.67;4.33;;;;;13.89;100.00;101935.78;4970664;28;45246;-72
2023/03/20 07:28:07;;;;;;;;;5.67;5.67;;;;;13.73;100.00;101908.19;4969857;28;45582;-75
2023/03/20 07:30:33;;;;;;;;;5.00;3.67;;;;;13.78;100.00;101921.41;4975098;28;45999;-73
2023/03/20 07:32:58;;;;;;;;;5.00;4.00;;;;;14.01;100.00;101907.34;4964018;28;45281;-74
2023/03/20 07:35:23;;;;;;;;;5.00;3.67;;;;;13.97;100.00;101916.81;4961055;28;45535;-72
2023/03/20 07:37:49;;;;;;;;;9.33;8.67;;;;;13.83;100.00;101925.44;4959895;28;45407;-73
2023/03/20 07:40:15;;;;;;;;;6.33;4.00;;;;;13.68;100.00;101926.81;4966686;28;45891;-73
2023/03/20 07:42:40;;;;;;;;;4.00;4.00;;;;;13.72;100.00;101933.75;4963361;28;45332;-72
2023/03/20 07:45:08;;;;;;;;;4.33;3.00;;;;;13.94;100.00;101936.25;4963360;28;45503;-74
2023/03/20 07:47:34;;;;;;;;;5.00;4.00;;;;;13.99;100.00;101923.00;4962958;28;45294;-72
2023/03/20 07:50:00;;;;;;;;;5.00;3.00;;;;;13.82;100.00;101920.97;4961765;28;47925;-74
2023/03/20 07:52:25;;;;;;;;;7.67;4.00;;;;;13.92;100.00;101940.13;4977134;28;45226;-74
2023/03/20 07:54:50;;;;;;;;;7.67;6.67;;;;;14.01;100.00;101928.34;4975669;28;45409;-73
2023/03/20 07:57:17;;;;;;;;;6.33;5.00;;;;;13.83;100.00;101911.78;4968170;28;45279;-73
2023/03/20 07:59:42;;;;;;;;;3.33;3.33;;;;;14.12;100.00;101925.47;4966494;28;45415;-72
2023/03/20 08:02:13;;;;;;;;;5.00;5.00;;;;;14.26;100.00;101929.63;4975734;28;46023;-73
2023/03/20 08:04:38;;;;;;;;;4.00;4.00;;;;;14.34;100.00;101921.59;4962590;28;45491;-72
2023/03/20 08:07:04;;;;;;;;;5.00;4.33;;;;;14.43;100.00;101920.75;4972270;28;45392;-73
2023/03/20 08:09:29;;;;;;;;;3.67;3.67;;;;;14.46;100.00;101922.34;4969163;28;46680;-72
2023/03/20 08:11:55;;;;;;;;;4.33;4.33;;;;;14.62;100.00;101919.84;4966854;28;45257;-73
2023/03/20 08:14:20;;;;;;;;;4.33;4.33;;;;;14.68;100.00;101917.41;4970096;28;45318;-73
2023/03/20 08:16:45;;;;;;;;;5.67;3.67;;;;;14.84;100.00;101915.94;4966992;28;45673;-73
2023/03/20 08:19:11;;;;;;;;;6.00;6.00;;;;;14.98;100.00;101931.88;4965878;28;45559;-73
2023/03/20 08:21:36;;;;;;;;;7.33;5.67;;;;;15.12;100.00;101925.97;4966635;28;47817;-74
2023/03/20 08:24:01;;;;;;;;;8.67;6.00;;;;;15.00;100.00;101944.41;4965490;28;45183;-76
2023/03/20 08:26:27;;;;;;;;;7.33;5.00;;;;;14.74;99.33;101919.56;4970966;28;45200;-74
2023/03/20 08:28:52;;;;;;;;;10.33;7.67;;;;;15.01;100.00;101931.59;4951851;28;46698;-74
2023/03/20 08:31:18;;;;;;;;;5.00;3.67;;;;;15.22;100.00;101945.06;4979153;28;45341;-74
2023/03/20 08:33:45;;;;;;;;;6.33;6.00;;;;;14.90;100.00;101938.13;4965566;28;45536;-75
2023/03/20 08:36:10;;;;;;;;;3.33;2.33;;;;;14.74;100.00;101959.75;4978948;28;45399;-76
2023/03/20 08:38:36;;;;;;;;;8.67;6.33;;;;;14.79;100.00;101952.81;4967240;28;45900;-73
2023/03/20 08:41:01;;;;;;;;;6.00;4.67;;;;;14.69;100.00;101949.22;4979247;28;45351;-74
2023/03/20 08:43:27;;;;;;;;;11.67;4.00;;;;;14.85;100.00;101958.69;4965492;28;45400;-74
2023/03/20 08:45:53;;;;;;;;;6.00;5.00;;;;;14.66;100.00;101967.81;4967220;28;45371;-74
2023/03/20 08:48:18;;;;;;;;;9.33;7.33;;;;;14.67;100.00;101959.47;4967151;28;46313;-74
2023/03/20 08:50:43;;;;;;;;;4.00;4.00;;;;;15.00;100.00;101958.09;4968742;28;45375;-73
2023/03/20 08:53:09;;;;;;;;;9.67;5.33;;;;;15.32;100.00;101971.41;4967076;28;45511;-74
2023/03/20 08:55:35;;;;;;;;;5.67;4.67;;;;;15.40;100.00;101971.53;4970984;28;45246;-74
2023/03/20 08:58:00;;;;;;;;;9.67;5.00;;;;;15.51;100.00;101959.50;4966150;28;45448;-73
2023/03/20 09:00:26;;;;;;;;;4.67;4.67;;;;;15.74;99.92;101940.81;4953679;28;45219;-74
2023/03/20 09:02:51;;;;;;;;;6.00;5.67;;;;;15.79;98.44;101938.47;4961618;28;45408;-73
2023/03/20 09:05:17;;;;;;;;;5.67;5.00;;;;;16.11;98.45;101944.34;4966292;28;45262;-74
2023/03/20 09:07:42;;;;;;;;;5.00;4.00;;;;;16.34;98.74;101937.38;4962113;28;46065;-75
2023/03/20 09:10:09;;;;;;;;;5.67;5.00;;;;;16.72;96.44;101946.31;4960854;28;45312;-74
2023/03/20 09:12:34;;;;;;;;;6.00;5.00;;;;;16.84;92.63;101947.78;4976905;28;45539;-74
2023/03/20 09:15:01;;;;;;;;;7.33;6.67;;;;;16.67;92.67;101952.25;4963458;28;45439;-74
2023/03/20 09:17:26;;;;;;;;;5.33;5.00;;;;;17.00;93.35;101928.69;4962079;28;45362;-74
2023/03/20 09:19:52;;;;;;;;;5.00;4.00;;;;;17.46;92.68;101927.38;4966267;28;45347;-75
2023/03/20 09:22:17;;;;;;;;;5.67;5.33;;;;;17.05;88.89;101925.44;4975666;28;45791;-75
2023/03/20 09:24:44;;;;;;;;;5.67;5.67;;;;;16.92;90.75;101920.38;4964360;28;45424;-71
2023/03/20 09:27:09;;;;;;;;;7.67;5.33;;;;;16.85;90.41;101929.41;4961971;28;46397;-73
2023/03/20 09:29:34;;;;;;;;;7.33;7.00;;;;;16.51;92.05;101930.13;4969189;28;45326;-73
2023/03/20 09:32:00;;;;;;;;;4.33;4.33;;;;;16.52;94.31;101933.75;5009143;28;45185;-72
2023/03/20 09:34:25;;;;;;;;;4.33;4.00;;;;;16.63;93.77;101922.56;4963200;28;45247;-76
2023/03/20 09:36:51;;;;;;;;;8.00;7.00;;;;;16.79;93.89;101902.63;4961092;28;46992;-73
2023/03/20 09:39:17;;;;;;;;;8.67;7.00;;;;;17.28;91.16;101914.75;4962853;28;45273;-73
2023/03/20 09:41:47;;;;;;;;;9.00;5.67;;;;;17.55;90.86;101910.91;4994455;28;45484;-73
2023/03/20 09:44:48;;;;;;;;;8.33;4.67;;;;;18.52;88.79;101914.78;4963597;28;45482;-74
2023/03/20 09:48:05;;;;;;;;;5.00;4.00;;;;;18.54;81.69;101926.47;4962248;28;46342;-72
2023/03/20 09:51:07;;;;;;;;;7.00;1.33;;;;;18.13;81.49;101938.44;4976933;28;45453;-74
2023/03/20 09:53:56;;;;;;;;;3.33;3.00;;;;;18.09;86.41;101940.69;4959707;28;45505;-73
2023/03/20 09:56:27;;;;;;;;;6.67;3.00;;;;;17.68;87.07;101923.19;4963120;28;45455;-75
2023/03/20 09:58:55;;;;;;;;;5.67;5.67;;;;;18.22;84.98;101927.31;4965060;28;45171;-74
2023/03/20 10:01:39;;;;;;;;;15.33;5.00;;;;;17.48;81.89;101925.31;4976122;28;45474;-73
2023/03/20 10:04:09;;;;;;;;;5.33;5.33;;;;;17.56;84.67;101919.00;4968997;28;45380;-73
2023/03/20 10:06:34;;;;;;;;;4.67;3.67;;;;;17.39;85.31;101919.94;4977235;28;45258;-74
2023/03/20 10:09:01;;;;;;;;;6.67;5.00;;;;;17.73;84.99;101930.97;4977247;28;47806;-74
2023/03/20 10:11:49;;;;;;;;;7.33;6.00;;;;;18.07;82.81;101928.13;5008083;28;45408;-72
2023/03/20 10:14:44;;;;;;;;;6.33;6.00;;;;;17.80;83.00;101926.53;4971781;28;45437;-73
2023/03/20 10:17:34;;;;;;;;;5.00;5.00;;;;;17.74;84.22;101919.81;4966120;28;45445;-73
2023/03/20 10:20:12;;;;;;;;;6.33;5.00;;;;;18.41;83.95;101909.59;4978427;28;45464;-74
2023/03/20 10:22:56;;;;;;;;;5.00;5.00;;;;;18.42;79.64;101908.56;5004152;28;45517;-75
2023/03/20 10:25:38;;;;;;;;;5.00;3.67;;;;;18.38;79.12;101917.34;4979215;28;47182;-75
2023/03/20 10:28:11;;;;;;;;;7.33;4.00;;;;;18.77;79.35;101903.78;4971646;28;45404;-75
2023/03/20 10:30:55;;;;;;;;;6.33;3.33;;;;;19.23;76.90;101900.22;4976821;28;46596;-74
2023/03/20 10:33:35;;;;;;;;;2.00;2.00;;;;;19.54;73.76;101903.09;4965014;28;45989;-75
2023/03/20 10:36:20;;;;;;;;;6.33;2.00;;;;;19.82;72.09;101896.03;4979103;28;45329;-74
2023/03/20 10:39:00;;;;;;;;;4.00;3.33;;;;;19.94;68.09;101903.94;4965518;28;45529;-75
2023/03/20 10:41:34;;;;;;;;;6.33;4.00;;;;;19.83;67.49;101895.00;4972245;28;46732;-75
2023/03/20 10:44:01;;;;;;;;;4.00;3.67;;;;;20.36;66.51;101896.06;4970377;28;45521;-75
2023/03/20 10:46:30;;;;;;;;;2.67;2.67;;;;;20.81;66.52;101886.00;4974684;28;45222;-73
2023/03/20 10:48:59;;;;;;;;;2.67;2.00;;;;;20.64;65.73;101896.34;4965493;28;46428;-75
2023/03/20 10:51:38;;;;;;;;;7.67;5.00;;;;;20.68;63.53;101903.19;4962285;28;47807;-75
2023/03/20 10:54:11;;;;;;;;;3.67;3.67;;;;;20.88;61.44;101882.31;4997634;28;45344;-74
2023/03/20 10:56:47;;;;;;;;;6.33;4.00;;;;;21.10;60.32;101885.19;4974770;28;45323;-74
2023/03/20 10:59:15;;;;;;;;;5.67;4.00;;;;;21.49;62.16;101885.75;4964407;28;45558;-74
2023/03/20 11:01:40;;;;;;;;;6.00;4.00;;;;;21.02;59.46;101865.94;4969624;28;45529;-74
2023/03/20 11:04:06;;;;;;;;;5.67;5.00;;;;;21.52;60.28;101871.56;4955960;28;48638;-76
2023/03/20 11:06:37;;;;;;;;;7.00;6.00;;;;;21.88;57.14;101871.56;4969223;28;46681;-75
2023/03/20 11:09:20;;;;;;;;;6.33;4.00;;;;;22.05;56.72;101863.91;4970429;28;45356;-74
2023/03/20 11:11:48;;;;;;;;;8.33;7.00;;;;;22.35;57.47;101862.75;4962578;28;45484;-74
2023/03/20 11:14:32;;;;;;;;;6.00;4.33;;;;;22.36;54.87;101860.81;4963088;28;45393;-75
2023/03/20 11:17:01;;;;;;;;;2.00;1.00;;;;;21.30;54.89;101855.94;4964666;28;45345;-73
2023/03/20 11:19:32;;;;;;;;;5.33;5.00;;;;;21.93;55.93;101848.84;4966308;28;45339;-74
2023/03/20 11:22:05;;;;;;;;;5.33;5.00;;;;;21.96;54.11;101842.91;4977620;28;48026;-74